Time;durP1;ratioP1;P1;durP2;ratioP2;P2;SDS_P1;SDS_P2;PMS_P1;PMS_P2;Temp;Humidity;BMP_temperature;BMP_pressure;BME280_temperature;BME280_humidity;BME280_pressure;Samples;Min_cycle;Max_cycle;Signal;HPM_P1;HPM_P2
2021/01/10 00:00:23;;;;;;;12.88;11.10;;;16.70;53.10;;;;;;5113406;28;20027;-82
2021/01/10 00:02:53;;;;;;;15.32;11.48;;;16.70;53.70;;;;;;5112784;28;20026;-83
2021/01/10 00:05:25;;;;;;;14.52;11.32;;;16.60;53.20;;;;;;5113314;28;20028;-83
2021/01/10 00:07:51;;;;;;;13.30;10.75;;;16.60;53.20;;;;;;5094324;28;20039;-81
2021/01/10 00:10:18;;;;;;;12.75;10.90;;;16.60;53.20;;;;;;5113472;28;20026;-83
2021/01/10 00:12:44;;;;;;;14.55;11.05;;;16.60;53.20;;;;;;5113077;28;20020;-82
2021/01/10 00:15:12;;;;;;;12.73;9.88;;;16.50;53.20;;;;;;5113259;28;20016;-82
2021/01/10 00:17:39;;;;;;;14.57;11.75;;;16.50;53.30;;;;;;5112711;28;20030;-83
2021/01/10 00:20:07;;;;;;;14.85;11.63;;;16.50;53.30;;;;;;5112555;28;20031;-83
2021/01/10 00:22:32;;;;;;;13.95;10.05;;;16.40;53.30;;;;;;5112649;28;20032;-82
2021/01/10 00:24:58;;;;;;;13.68;10.85;;;16.40;53.40;;;;;;5112733;28;20023;-83
2021/01/10 00:27:23;;;;;;;12.73;10.07;;;16.30;53.30;;;;;;5112458;28;20067;-83
2021/01/10 00:29:53;;;;;;;11.43;9.93;;;16.30;53.30;;;;;;5112429;28;20093;-83
2021/01/10 00:32:19;;;;;;;15.73;11.27;;;16.30;53.30;;;;;;5113039;28;20534;-83
2021/01/10 00:34:45;;;;;;;15.60;11.10;;;16.20;53.40;;;;;;5112745;28;20539;-82
2021/01/10 00:37:21;;;;;;;14.32;11.20;;;16.20;53.40;;;;;;5112735;28;20027;-81
2021/01/10 00:39:50;;;;;;;13.30;10.38;;;16.20;53.40;;;;;;5112509;28;20102;-81
2021/01/10 00:42:17;;;;;;;13.57;10.27;;;16.10;53.40;;;;;;5112589;28;20478;-82
2021/01/10 00:44:47;;;;;;;13.20;10.05;;;16.10;53.40;;;;;;5111865;28;20031;-78
2021/01/10 00:47:13;;;;;;;12.60;10.32;;;16.10;53.40;;;;;;5112366;28;20087;-82
2021/01/10 00:49:39;;;;;;;13.02;10.10;;;16.00;53.40;;;;;;5111591;28;20027;-82
2021/01/10 00:52:06;;;;;;;14.95;10.80;;;16.00;53.40;;;;;;5112622;28;20498;-82
2021/01/10 00:54:32;;;;;;;14.20;10.57;;;16.00;53.50;;;;;;5112133;28;20032;-80
2021/01/10 00:56:59;;;;;;;12.60;10.45;;;15.90;53.40;;;;;;5112320;28;20039;-82
2021/01/10 00:59:24;;;;;;;14.75;9.82;;;16.00;53.40;;;;;;5111542;28;20053;-81
2021/01/10 01:01:51;;;;;;;13.70;9.80;;;15.90;53.40;;;;;;5111844;28;20031;-82
2021/01/10 01:04:17;;;;;;;10.13;8.68;;;15.90;53.50;;;;;;5112474;28;20463;-81
2021/01/10 01:06:43;;;;;;;11.70;9.45;;;15.80;53.40;;;;;;5112163;28;20027;-82
2021/01/10 01:09:08;;;;;;;12.95;9.68;;;15.80;53.40;;;;;;5111816;28;20031;-80
2021/01/10 01:11:36;;;;;;;14.10;10.50;;;15.80;53.50;;;;;;5093278;28;20032;-79
2021/01/10 01:14:04;;;;;;;13.60;9.65;;;15.80;53.50;;;;;;5111614;28;20479;-79
2021/01/10 01:16:30;;;;;;;12.50;9.70;;;15.70;53.40;;;;;;5112240;28;20031;-75
2021/01/10 01:18:56;;;;;;;11.75;9.38;;;15.70;53.40;;;;;;5111168;28;20039;-78
2021/01/10 01:21:22;;;;;;;12.63;10.00;;;15.70;53.40;;;;;;5111646;28;20027;-78
2021/01/10 01:23:49;;;;;;;12.75;9.30;;;15.70;53.50;;;;;;5111185;28;20027;-79
2021/01/10 01:26:15;;;;;;;14.57;10.25;;;15.60;53.50;;;;;;5111574;28;20035;-78
2021/01/10 01:28:43;;;;;;;11.85;9.10;;;15.60;53.40;;;;;;5111428;28;20088;-82
2021/01/10 01:31:10;;;;;;;11.82;9.13;;;15.60;53.50;;;;;;5111275;28;20476;-79
2021/01/10 01:33:36;;;;;;;13.57;9.80;;;15.50;53.50;;;;;;5111551;28;20028;-83
2021/01/10 01:36:02;;;;;;;13.77;9.77;;;15.50;53.50;;;;;;5111889;28;20090;-82
2021/01/10 01:38:28;;;;;;;15.10;10.38;;;15.50;53.50;;;;;;5111684;28;20601;-82
2021/01/10 01:41:00;;;;;;;13.25;10.15;;;15.40;53.40;;;;;;5111704;28;20047;-83
2021/01/10 01:43:26;;;;;;;13.43;10.38;;;15.50;53.50;;;;;;5111287;28;20032;-83
2021/01/10 01:45:52;;;;;;;12.98;10.40;;;15.50;54.00;;;;;;5110890;28;20050;-82
2021/01/10 01:48:18;;;;;;;14.07;10.80;;;15.40;53.40;;;;;;5111242;28;20069;-83
2021/01/10 01:50:44;;;;;;;15.60;10.38;;;15.40;53.40;;;;;;5111405;28;20051;-84
2021/01/10 01:53:09;;;;;;;14.10;10.85;;;15.40;53.40;;;;;;5111451;28;20027;-82
2021/01/10 01:55:36;;;;;;;14.60;10.02;;;15.30;53.40;;;;;;5093012;28;20114;-83
2021/01/10 01:58:05;;;;;;;17.67;10.75;;;15.40;53.40;;;;;;5092665;28;20083;-81
2021/01/10 02:00:32;;;;;;;14.43;10.20;;;15.30;53.40;;;;;;5111145;28;20058;-79
2021/01/10 02:02:58;;;;;;;15.38;10.95;;;15.30;53.40;;;;;;5111131;28;20059;-84
2021/01/10 02:05:28;;;;;;;15.77;10.23;;;15.20;53.40;;;;;;5111547;28;20060;-81
2021/01/10 02:08:10;;;;;;;14.55;11.27;;;15.30;53.50;;;;;;5110987;28;20452;-79
2021/01/10 02:10:40;;;;;;;14.05;10.52;;;15.20;53.40;;;;;;5111132;28;20027;-84
2021/01/10 02:13:12;;;;;;;15.35;10.27;;;15.20;53.50;;;;;;5111450;28;20024;-82
2021/01/10 02:15:40;;;;;;;14.43;10.13;;;15.20;53.50;;;;;;5093227;28;20030;-80
2021/01/10 02:18:08;;;;;;;15.50;10.68;;;15.10;53.50;;;;;;5111748;28;20039;-87
2021/01/10 02:20:39;;;;;;;14.40;10.98;;;15.10;53.40;;;;;;5110601;28;20031;-83
2021/01/10 02:23:06;;;;;;;14.48;10.43;;;15.10;53.50;;;;;;5111352;28;20023;-82
2021/01/10 02:25:37;;;;;;;14.25;10.05;;;15.10;54.00;;;;;;5110847;28;20096;-83
2021/01/10 02:28:04;;;;;;;18.67;11.23;;;15.10;53.50;;;;;;5093052;28;20023;-83
2021/01/10 02:30:33;;;;;;;14.93;10.43;;;15.10;53.50;;;;;;5111518;28;20023;-84
2021/01/10 02:33:04;;;;;;;13.98;10.75;;;15.00;53.40;;;;;;5111403;28;20461;-84
2021/01/10 02:35:33;;;;;;;15.25;10.40;;;15.00;53.40;;;;;;5111757;28;20053;-84
2021/01/10 02:38:13;;;;;;;15.82;10.88;;;15.00;53.40;;;;;;5111990;28;20084;-84
2021/01/10 02:40:59;;;;;;;15.00;10.70;;;15.00;53.50;;;;;;5115268;28;20030;-84
2021/01/10 02:43:28;;;;;;;15.88;11.05;;;15.00;53.50;;;;;;5114774;28;20034;-84
2021/01/10 02:45:59;;;;;;;16.25;10.93;;;14.90;53.50;;;;;;5114695;28;20479;-84
2021/01/10 02:48:25;;;;;;;18.83;12.00;;;14.90;53.50;;;;;;5115173;28;20032;-80
2021/01/10 02:50:50;;;;;;;16.33;10.55;;;14.90;54.00;;;;;;5113291;28;20517;-72
2021/01/10 02:53:16;;;;;;;16.30;11.00;;;14.90;53.50;;;;;;5114683;28;20028;-84
2021/01/10 02:55:42;;;;;;;13.60;9.50;;;14.90;53.50;;;;;;5114980;28;20111;-83
2021/01/10 02:58:23;;;;;;;15.73;10.82;;;14.90;53.50;;;;;;5114764;28;20049;-85
2021/01/10 03:00:51;;;;;;;15.70;10.55;;;14.80;53.40;;;;;;5113919;28;20391;-85
2021/01/10 03:03:17;;;;;;;17.60;10.98;;;14.80;53.40;;;;;;5115186;28;20050;-84
2021/01/10 03:05:44;;;;;;;16.17;10.93;;;14.80;53.50;;;;;;5114756;28;20024;-83
2021/01/10 03:08:11;;;;;;;16.02;10.60;;;14.80;53.50;;;;;;5114488;28;20031;-83
2021/01/10 03:10:37;;;;;;;14.38;10.18;;;14.80;53.50;;;;;;5114672;28;20204;-82
2021/01/10 03:13:04;;;;;;;15.18;11.18;;;14.70;53.50;;;;;;5114125;28;20027;-83
2021/01/10 03:15:32;;;;;;;16.20;11.27;;;14.70;53.50;;;;;;5114415;28;20038;-83
2021/01/10 03:18:15;;;;;;;15.48;10.50;;;14.80;53.60;;;;;;5114584;28;20038;-83
2021/01/10 03:20:40;;;;;;;14.55;10.23;;;14.70;53.50;;;;;;5113514;28;20023;-83
2021/01/10 03:23:06;;;;;;;14.15;10.15;;;14.70;53.50;;;;;;5113864;28;20031;-84
2021/01/10 03:25:31;;;;;;;16.10;10.93;;;14.70;53.50;;;;;;5114566;28;20074;-77
2021/01/10 03:27:57;;;;;;;15.80;10.18;;;14.70;53.60;;;;;;5114173;28;20023;-79
2021/01/10 03:30:23;;;;;;;14.63;11.13;;;14.70;53.50;;;;;;5113519;28;20031;-81
2021/01/10 03:32:49;;;;;;;13.63;9.75;;;14.60;53.50;;;;;;5113511;28;20028;-79
2021/01/10 03:35:17;;;;;;;16.00;10.65;;;14.60;53.50;;;;;;5114012;28;20099;-77
2021/01/10 03:37:44;;;;;;;13.85;10.15;;;14.60;53.50;;;;;;5113562;28;20399;-79
2021/01/10 03:40:10;;;;;;;16.15;10.57;;;14.60;53.50;;;;;;5113561;28;20061;-81
2021/01/10 03:42:36;;;;;;;14.68;10.60;;;14.60;53.60;;;;;;5095596;28;20032;-79
2021/01/10 03:45:04;;;;;;;14.50;9.65;;;14.50;53.50;;;;;;5114020;28;20069;-81
2021/01/10 03:47:30;;;;;;;18.58;11.20;;;14.50;53.50;;;;;;5113983;28;20046;-80
2021/01/10 03:49:56;;;;;;;14.20;9.65;;;14.50;53.50;;;;;;5112272;28;20023;-82
2021/01/10 03:52:21;;;;;;;14.60;10.27;;;14.50;54.20;;;;;;5113230;28;20451;-83
2021/01/10 03:54:47;;;;;;;15.02;10.85;;;14.50;53.50;;;;;;5113278;28;20507;-83
2021/01/10 03:57:12;;;;;;;13.95;9.70;;;14.50;53.60;;;;;;5114334;28;20023;-84
2021/01/10 03:59:39;;;;;;;13.02;9.85;;;14.50;53.60;;;;;;5095001;28;20441;-83
2021/01/10 04:02:05;;;;;;;13.68;10.05;;;14.50;53.60;;;;;;5113154;28;20035;-82
2021/01/10 04:04:30;;;;;;;14.73;10.73;;;14.50;53.60;;;;;;5113757;28;20499;-83
2021/01/10 04:06:56;;;;;;;14.77;9.75;;;14.40;53.60;;;;;;5113363;28;20040;-82
2021/01/10 04:09:21;;;;;;;16.08;10.70;;;14.40;53.60;;;;;;5113526;28;20038;-79
2021/01/10 04:11:47;;;;;;;14.63;10.77;;;14.40;53.60;;;;;;5112664;28;20498;-81
2021/01/10 04:14:12;;;;;;;12.93;9.77;;;14.40;53.60;;;;;;5113499;28;20038;-78
2021/01/10 04:16:38;;;;;;;13.75;9.60;;;14.40;53.60;;;;;;5113113;28;20054;-84
2021/01/10 04:19:04;;;;;;;14.05;9.60;;;14.40;53.60;;;;;;5112897;28;20076;-84
2021/01/10 04:21:33;;;;;;;12.98;9.40;;;14.40;53.50;;;;;;5095224;28;20028;-84
2021/01/10 04:24:00;;;;;;;14.07;10.40;;;14.40;53.60;;;;;;5113031;28;20024;-85
2021/01/10 04:26:26;;;;;;;13.27;9.40;;;14.40;53.60;;;;;;5113489;28;20027;-85
2021/01/10 04:28:51;;;;;;;13.85;8.98;;;14.30;53.50;;;;;;5112976;28;20486;-85
2021/01/10 04:31:17;;;;;;;14.00;9.05;;;14.30;53.50;;;;;;5113041;28;20042;-85
2021/01/10 04:33:43;;;;;;;12.38;9.90;;;14.30;53.60;;;;;;5112576;28;20506;-83
2021/01/10 04:36:09;;;;;;;13.95;9.77;;;14.30;54.10;;;;;;5112692;28;20393;-83
2021/01/10 04:38:34;;;;;;;12.40;9.27;;;14.30;53.60;;;;;;5112689;28;20463;-83
2021/01/10 04:41:00;;;;;;;12.20;9.50;;;14.30;53.60;;;;;;5113312;28;20019;-81
2021/01/10 04:43:26;;;;;;;12.90;9.27;;;14.30;53.70;;;;;;5112353;28;20034;-79
2021/01/10 04:45:52;;;;;;;13.02;9.32;;;14.20;53.60;;;;;;5112560;28;20556;-76
2021/01/10 04:48:18;;;;;;;13.30;9.85;;;14.30;53.70;;;;;;5112078;28;20111;-81
2021/01/10 04:50:44;;;;;;;13.15;9.18;;;14.30;53.70;;;;;;5091794;28;20465;-84
2021/01/10 04:53:15;;;;;;;13.63;10.10;;;14.20;53.70;;;;;;5092254;28;20028;-83
2021/01/10 04:55:44;;;;;;;13.25;9.40;;;14.20;53.70;;;;;;5091992;28;20059;-81
2021/01/10 04:58:09;;;;;;;14.65;9.73;;;14.20;53.70;;;;;;5105175;28;20038;-81
2021/01/10 05:00:35;;;;;;;12.88;9.48;;;14.20;53.70;;;;;;5110951;28;20095;-83
2021/01/10 05:03:11;;;;;;;13.88;10.57;;;14.20;53.80;;;;;;5093942;28;20035;-82
2021/01/10 05:05:40;;;;;;;13.50;9.15;;;14.20;53.80;;;;;;5112234;28;20019;-82
2021/01/10 05:08:10;;;;;;;14.23;9.63;;;14.20;53.80;;;;;;5112465;28;20059;-81
2021/01/10 05:10:38;;;;;;;14.00;9.25;;;14.20;54.40;;;;;;5111496;28;20103;-81
2021/01/10 05:13:04;;;;;;;13.70;10.82;;;14.20;53.90;;;;;;5111900;28;20022;-82
2021/01/10 05:15:30;;;;;;;12.95;9.43;;;14.20;53.90;;;;;;5112660;28;20054;-81
2021/01/10 05:17:57;;;;;;;12.73;10.13;;;14.20;53.90;;;;;;5111345;28;20020;-82
2021/01/10 05:20:28;;;;;;;13.75;9.40;;;14.10;53.90;;;;;;5111357;28;20075;-82
2021/01/10 05:22:54;;;;;;;13.40;10.30;;;14.10;53.90;;;;;;5111450;28;20027;-82
2021/01/10 05:25:20;;;;;;;11.55;9.02;;;14.10;53.90;;;;;;5111895;28;20031;-79
2021/01/10 05:27:47;;;;;;;12.65;9.60;;;14.10;53.90;;;;;;5111601;28;20027;-82
2021/01/10 05:30:15;;;;;;;14.32;10.13;;;14.10;53.90;;;;;;5111491;28;20047;-82
2021/01/10 05:32:40;;;;;;;13.63;10.15;;;14.10;53.90;;;;;;5111165;28;20023;-82
2021/01/10 05:35:06;;;;;;;13.38;9.70;;;14.10;53.90;;;;;;5111643;28;20423;-82
2021/01/10 05:37:33;;;;;;;13.18;9.65;;;14.10;53.90;;;;;;5093081;28;20031;-79
2021/01/10 05:39:58;;;;;;;14.32;10.05;;;14.10;54.00;;;;;;5111560;28;20019;-82
2021/01/10 05:42:30;;;;;;;16.00;10.65;;;14.00;53.90;;;;;;5111322;28;20038;-83
2021/01/10 05:44:56;;;;;;;13.60;10.07;;;14.10;54.50;;;;;;5111818;28;20024;-79
2021/01/10 05:47:22;;;;;;;14.40;10.25;;;14.00;53.90;;;;;;5111745;28;20039;-75
2021/01/10 05:49:49;;;;;;;13.40;10.57;;;14.00;54.00;;;;;;5110802;28;20023;-82
2021/01/10 05:52:16;;;;;;;13.77;9.60;;;14.00;54.00;;;;;;5111375;28;20104;-82
2021/01/10 05:54:42;;;;;;;13.13;10.23;;;14.00;54.00;;;;;;5110914;28;20049;-82
2021/01/10 05:57:10;;;;;;;13.55;10.20;;;14.00;54.00;;;;;;5111203;28;20437;-84
2021/01/10 05:59:38;;;;;;;14.52;10.13;;;14.00;54.40;;;;;;5110883;28;20384;-81
2021/01/10 06:02:05;;;;;;;13.20;9.52;;;14.00;53.90;;;;;;5110524;28;20081;-81
2021/01/10 06:04:32;;;;;;;13.13;9.98;;;14.20;54.60;;;;;;5111230;28;20020;-81
2021/01/10 06:06:58;;;;;;;12.73;9.75;;;14.20;54.10;;;;;;5111795;28;20020;-78
2021/01/10 06:09:24;;;;;;;13.48;9.60;;;14.40;54.10;;;;;;5111061;28;20035;-78
2021/01/10 06:11:50;;;;;;;15.00;10.02;;;14.40;53.90;;;;;;5110737;28;20390;-83
2021/01/10 06:14:23;;;;;;;13.73;9.98;;;14.50;53.80;;;;;;5115268;28;20372;-81
2021/01/10 06:16:58;;;;;;;12.98;9.48;;;14.70;53.80;;;;;;5115490;28;20031;-83
2021/01/10 06:19:28;;;;;;;11.75;8.15;;;14.80;53.80;;;;;;5115113;28;20038;-80
2021/01/10 06:22:02;;;;;;;10.85;8.27;;;14.90;53.80;;;;;;5115232;28;20032;-83
2021/01/10 06:24:33;;;;;;;11.43;9.35;;;15.00;53.70;;;;;;5115570;28;20015;-82
2021/01/10 06:27:06;;;;;;;13.45;9.35;;;15.10;53.70;;;;;;5115159;28;20180;-80
2021/01/10 06:29:42;;;;;;;10.63;8.10;;;15.30;53.60;;;;;;5096717;28;20024;-77
2021/01/10 06:32:10;;;;;;;12.40;8.57;;;15.30;53.50;;;;;;5115591;28;20100;-82
2021/01/10 06:34:39;;;;;;;12.20;8.32;;;15.40;53.40;;;;;;5114718;28;20031;-82
2021/01/10 06:37:09;;;;;;;11.90;8.55;;;15.50;53.40;;;;;;5115089;28;20176;-81
2021/01/10 06:39:46;;;;;;;12.63;9.05;;;15.60;53.30;;;;;;5114369;28;20035;-82
2021/01/10 06:42:13;;;;;;;10.82;8.35;;;15.70;53.30;;;;;;5106648;28;20498;-81
2021/01/10 06:44:48;;;;;;;10.55;7.65;;;15.80;53.20;;;;;;5115138;28;20035;-82
2021/01/10 06:47:23;;;;;;;11.80;8.45;;;15.90;53.10;;;;;;5115218;28;20111;-83
2021/01/10 06:49:50;;;;;;;11.00;8.57;;;16.00;53.10;;;;;;5113993;28;20039;-82
2021/01/10 06:52:19;;;;;;;11.40;7.80;;;16.10;52.90;;;;;;5114924;28;20372;-84
2021/01/10 06:54:46;;;;;;;10.25;7.82;;;16.20;52.90;;;;;;5114670;28;21745;-83
2021/01/10 06:57:13;;;;;;;11.90;8.55;;;16.30;52.80;;;;;;5114688;28;20039;-83
2021/01/10 07:00:08;;;;;;;11.48;7.90;;;16.40;52.80;;;;;;5114936;28;20019;-87
2021/01/10 07:03:06;;;;;;;10.95;8.25;;;16.50;52.60;;;;;;5114478;28;20031;-86
2021/01/10 07:05:57;;;;;;;10.55;7.50;;;16.50;52.50;;;;;;5096631;28;20398;-83
2021/01/10 07:08:42;;;;;;;9.95;7.63;;;16.60;52.40;;;;;;5114703;28;20503;-81
2021/01/10 07:11:20;;;;;;;10.80;8.05;;;16.70;52.30;;;;;;5114390;28;20036;-75
2021/01/10 07:13:49;;;;;;;10.32;7.53;;;16.80;52.30;;;;;;5114187;28;20073;-79
2021/01/10 07:16:25;;;;;;;10.30;7.47;;;16.80;52.10;;;;;;5113904;28;20518;-77
2021/01/10 07:19:03;;;;;;;11.20;7.85;;;16.90;51.90;;;;;;5112861;28;20020;-78
2021/01/10 07:21:33;;;;;;;11.15;7.25;;;17.00;52.10;;;;;;5116035;28;20027;-78
2021/01/10 07:24:16;;;;;;;9.95;7.30;;;17.10;52.10;;;;;;5114697;28;20059;-84
2021/01/10 07:26:46;;;;;;;9.27;7.55;;;17.20;52.00;;;;;;5114576;28;20402;-79
2021/01/10 07:29:34;;;;;;;11.50;7.15;;;17.20;51.80;;;;;;5115769;28;20070;-73
2021/01/10 07:32:03;;;;;;;10.95;7.20;;;17.30;51.90;;;;;;5113130;27;20035;-84
2021/01/10 07:34:31;;;;;;;11.02;7.43;;;17.30;51.90;;;;;;5126288;27;20080;-78
2021/01/10 07:36:59;;;;;;;13.80;8.02;;;17.30;51.60;;;;;;5123925;27;20418;-83
2021/01/10 07:39:30;;;;;;;17.15;9.82;;;17.40;51.60;;;;;;5122832;27;20110;-84
2021/01/10 07:42:14;;;;;;;14.75;8.55;;;17.50;52.10;;;;;;5118583;27;20029;-84
2021/01/10 07:44:47;;;;;;;14.75;7.93;;;17.50;52.10;;;;;;5111985;27;20019;-79
2021/01/10 07:47:14;;;;;;;13.60;8.10;;;17.60;51.70;;;;;;5125908;27;20031;-76
2021/01/10 07:49:58;;;;;;;12.02;7.72;;;17.60;52.20;;;;;;5129187;27;20023;-81
2021/01/10 07:52:45;;;;;;;12.40;7.63;;;17.60;51.70;;;;;;5122762;27;20027;-82
2021/01/10 07:55:19;;;;;;;13.07;8.43;;;17.60;51.60;;;;;;5125646;27;20026;-84
2021/01/10 07:57:54;;;;;;;13.85;7.93;;;17.70;51.80;;;;;;5119466;27;20490;-86
2021/01/10 08:00:33;;;;;;;13.25;8.85;;;17.70;51.70;;;;;;5120622;27;20080;-85
2021/01/10 08:02:59;;;;;;;13.80;7.88;;;17.70;51.70;;;;;;5117242;27;20545;-84
2021/01/10 08:05:29;;;;;;;14.63;7.55;;;17.70;52.10;;;;;;5108752;27;20107;-84
2021/01/10 08:07:59;;;;;;;12.70;7.55;;;17.70;51.90;;;;;;5122326;27;20066;-85
2021/01/10 08:10:46;;;;;;;12.15;7.25;;;17.80;51.70;;;;;;5115861;27;20099;-85
2021/01/10 08:13:28;;;;;;;14.93;7.53;;;17.80;51.50;;;;;;5131220;27;20031;-86
2021/01/10 08:15:55;;;;;;;11.52;7.30;;;17.80;51.50;;;;;;5129506;27;20034;-85
2021/01/10 08:18:22;;;;;;;13.07;7.18;;;17.80;51.70;;;;;;5133675;27;20410;-83
2021/01/10 08:20:51;;;;;;;14.20;7.40;;;17.80;51.50;;;;;;5131745;27;20482;-86
2021/01/10 08:23:18;;;;;;;12.70;8.23;;;17.90;51.40;;;;;;5120609;27;20031;-85
2021/01/10 08:25:45;;;;;;;15.25;8.32;;;17.90;51.50;;;;;;5112712;28;20103;-86
2021/01/10 08:28:15;;;;;;;11.40;7.20;;;18.00;51.50;;;;;;5112025;28;20103;-79
2021/01/10 08:30:41;;;;;;;11.23;6.95;;;18.00;51.50;;;;;;5125068;27;20106;-79
2021/01/10 08:33:07;;;;;;;11.13;6.90;;;18.00;51.40;;;;;;5132852;27;20540;-78
2021/01/10 08:35:32;;;;;;;13.02;7.47;;;18.00;51.40;;;;;;5118180;27;20023;-73
2021/01/10 08:37:58;;;;;;;15.73;8.18;;;18.10;51.50;;;;;;5124400;27;20071;-74
2021/01/10 08:40:23;;;;;;;14.10;7.93;;;18.10;51.40;;;;;;5131112;27;20080;-75
2021/01/10 08:42:59;;;;;;;14.40;7.97;;;18.10;51.30;;;;;;5130330;27;20023;-80
2021/01/10 08:45:25;;;;;;;12.65;7.97;;;18.10;51.10;;;;;;5127662;27;20367;-79
2021/01/10 08:47:51;;;;;;;12.43;7.45;;;18.20;51.00;;;;;;5112077;28;20132;-80
2021/01/10 08:50:16;;;;;;;10.05;6.75;;;18.20;51.00;;;;;;5114117;27;20063;-80
2021/01/10 08:52:53;;;;;;;12.63;7.82;;;18.20;51.00;;;;;;5130825;27;20087;-78
2021/01/10 08:55:38;;;;;;;11.52;6.82;;;18.20;50.80;;;;;;5132855;27;20031;-80
2021/01/10 08:58:06;;;;;;;10.95;7.28;;;18.20;50.50;;;;;;5112121;27;20023;-82
2021/01/10 09:00:33;;;;;;;14.07;7.90;;;18.30;50.60;;;;;;5106595;27;20453;-75
2021/01/10 09:03:12;;;;;;;11.88;6.63;;;18.30;50.60;;;;;;5119246;27;20019;-79
2021/01/10 09:05:38;;;;;;;12.02;7.00;;;18.30;50.70;;;;;;5110872;28;20024;-80
2021/01/10 09:08:06;;;;;;;17.73;7.55;;;18.40;50.80;;;;;;5093214;28;20031;-81
2021/01/10 09:10:42;;;;;;;14.98;7.70;;;18.40;50.70;;;;;;5113788;27;20019;-73
2021/01/10 09:13:10;;;;;;;10.25;6.60;;;18.40;50.50;;;;;;5100097;27;20035;-79
2021/01/10 09:15:43;;;;;;;19.75;8.05;;;18.50;50.50;;;;;;5108774;27;20032;-76
2021/01/10 09:18:19;;;;;;;12.80;7.50;;;18.50;50.70;;;;;;5110462;28;20020;-83
2021/01/10 09:20:59;;;;;;;10.85;7.32;;;18.50;50.80;;;;;;5111546;28;20030;-78
2021/01/10 09:23:25;;;;;;;10.55;7.30;;;;;;;;;;5111433;27;20020;-79
2021/01/10 09:25:51;;;;;;;13.07;7.28;;;18.70;53.60;;;;;;5129883;27;20084;-73
2021/01/10 09:28:18;;;;;;;11.25;7.07;;;;;;;;;;5118478;27;20491;-78
2021/01/10 09:30:44;;;;;;;10.90;7.15;;;;;;;;;;5123677;27;20076;-79
2021/01/10 09:33:10;;;;;;;11.38;7.00;;;;;;;;;;5107071;27;20027;-80
2021/01/10 09:35:40;;;;;;;8.70;6.15;;;;;;;;;;5115353;27;20098;-84
2021/01/10 09:38:07;;;;;;;9.60;5.28;;;;;;;;;;5091772;28;20064;-82
2021/01/10 09:40:33;;;;;;;8.38;5.00;;;;;;;;;;5089044;28;20035;-81
2021/01/10 09:42:59;;;;;;;8.75;5.38;;;;;;;;;;5092057;28;20063;-83
2021/01/10 09:45:33;;;;;;;10.75;6.55;;;;;;;;;;5089045;28;20024;-78
2021/01/10 09:47:59;;;;;;;10.50;6.15;;;;;;;;;;5111395;27;20042;-79
2021/01/10 09:50:25;;;;;;;10.00;6.35;;;;;;;;;;5111385;27;20328;-81
2021/01/10 09:52:52;;;;;;;14.60;5.88;;;;;;;;;;5110506;28;20020;-77
2021/01/10 09:55:19;;;;;;;13.52;6.05;;;;;;;;;;5110080;28;20107;-80
2021/01/10 09:57:48;;;;;;;10.38;6.28;;;;;;;;;;5105797;28;20066;-84
2021/01/10 10:00:15;;;;;;;11.00;6.90;;;;;;;;;;5088499;28;20024;-79
2021/01/10 10:02:42;;;;;;;11.60;6.57;;;;;;;;;;5108786;28;20213;-79
2021/01/10 10:05:09;;;;;;;12.70;6.68;;;;;;;;;;5108986;28;20066;-79
2021/01/10 10:07:35;;;;;;;12.82;5.90;;;;;;;;;;5107363;28;20035;-79
2021/01/10 10:10:03;;;;;;;15.77;6.95;;;;;;;;;;5109918;28;20047;-80
2021/01/10 10:12:29;;;;;;;10.32;6.10;;;;;;;;;;5109329;28;20020;-78
2021/01/10 10:14:57;;;;;;;16.25;5.70;;;;;;;;;;5109173;28;20016;-76
2021/01/10 10:17:27;;;;;;;18.20;7.00;;;;;;;;;;5107849;28;20566;-79
2021/01/10 10:19:53;;;;;;;10.60;5.95;;;;;;;;;;5109167;28;20020;-80
2021/01/10 10:22:39;;;;;;;18.90;7.22;;;;;;;;;;5109117;28;20030;-80
2021/01/10 10:25:07;;;;;;;18.15;7.32;;;;;;;;;;5109444;28;20022;-76
2021/01/10 10:27:33;;;;;;;13.07;5.65;;;;;;;;;;5123805;28;20064;-75
2021/01/10 10:30:00;;;;;;;18.40;7.45;;;;;;;;;;5111132;28;20426;-76
2021/01/10 10:32:26;;;;;;;18.52;5.65;;;;;;;;;;5112376;28;20024;-76
2021/01/10 10:34:53;;;;;;;17.63;6.90;;;;;;;;;;5115561;28;20031;-76
2021/01/10 10:37:19;;;;;;;15.20;6.13;;;;;;;;;;5124350;28;20038;-76
2021/01/10 10:39:46;;;;;;;13.68;5.97;;;;;;;;;;5126878;28;20146;-76
2021/01/10 10:42:13;;;;;;;14.02;7.03;;;;;;;;;;5128843;28;20039;-75
2021/01/10 10:44:39;;;;;;;15.70;6.88;;;;;;;;;;5114909;28;20046;-77
2021/01/10 10:47:05;;;;;;;14.48;7.38;;;;;;;;;;5131138;28;20058;-76
2021/01/10 10:49:31;;;;;;;12.95;7.13;;;;;;;;;;5131894;28;20489;-75
2021/01/10 10:51:58;;;;;;;12.80;6.25;;;;;;;;;;5103030;28;20117;-75
2021/01/10 10:54:24;;;;;;;12.15;6.57;;;;;;;;;;5129318;28;20501;-75
2021/01/10 10:56:51;;;;;;;11.27;6.90;;;;;;;;;;5130822;28;20042;-73
2021/01/10 10:59:17;;;;;;;14.65;6.28;;;;;;;;;;5128512;27;20102;-75
2021/01/10 11:01:44;;;;;;;12.57;6.47;;;;;;;;;;5129162;27;20027;-74
2021/01/10 11:04:10;;;;;;;13.65;6.35;;;;;;;;;;5131547;27;20030;-74
2021/01/10 11:06:37;;;;;;;13.25;7.30;;;;;;;;;;5134620;27;20485;-73
2021/01/10 11:09:04;;;;;;;11.70;6.97;;;;;;;;;;5133247;27;20023;-76
2021/01/10 11:11:34;;;;;;;8.40;5.35;;;;;;;;;;5129386;27;20027;-74
2021/01/10 11:14:00;;;;;;;10.20;6.22;;;;;;;;;;5084647;28;20028;-74
2021/01/10 11:16:33;;;;;;;11.90;7.10;;;;;;;;;;5105072;28;20031;-73
2021/01/10 11:19:00;;;;;;;16.13;7.03;;;;;;;;;;5102790;28;20531;-72
2021/01/10 11:21:30;;;;;;;27.30;7.57;;;;;;;;;;5113886;28;20042;-73
2021/01/10 11:23:56;;;;;;;19.67;7.53;;;;;;;;;;5113294;28;20506;-75
2021/01/10 11:26:22;;;;;;;29.15;8.60;;;;;;;;;;5116852;27;20134;-74
2021/01/10 11:28:48;;;;;;;19.88;6.97;;;;;;;;;;5113962;27;20023;-75
2021/01/10 11:31:15;;;;;;;11.27;7.22;;;;;;;;;;5117535;27;20032;-75
2021/01/10 11:33:41;;;;;;;17.02;7.90;;;;;;;;;;5107982;27;20020;-75
2021/01/10 11:36:07;;;;;;;13.70;6.75;;;;;;;;;;5111687;27;20036;-73
2021/01/10 11:38:35;;;;;;;21.10;7.55;;;;;;;;;;5118511;27;20462;-75
2021/01/10 11:41:11;;;;;;;13.43;7.63;;;;;;;;;;5124822;27;20023;-75
2021/01/10 11:43:37;;;;;;;22.02;8.23;;;;;;;;;;5131026;27;20052;-75
2021/01/10 11:46:04;;;;;;;18.00;8.15;;;;;;;;;;5128782;27;20026;-76
2021/01/10 11:48:31;;;;;;;15.80;7.85;;;;;;;;;;5130400;27;20108;-76
2021/01/10 11:50:57;;;;;;;15.80;7.53;;;;;;;;;;5130521;27;20360;-74
2021/01/10 11:53:24;;;;;;;15.85;6.88;;;;;;;;;;5118204;27;20081;-78
2021/01/10 11:55:50;;;;;;;17.92;7.07;;;;;;;;;;5133623;27;20019;-76
2021/01/10 11:58:16;;;;;;;12.93;6.90;;;;;;;;;;5127982;27;20023;-76
2021/01/10 12:00:42;;;;;;;13.80;7.72;;;;;;;;;;5113855;27;20061;-74
2021/01/10 12:03:08;;;;;;;16.67;6.82;;;;;;;;;;5130251;27;20020;-72
2021/01/10 12:05:35;;;;;;;12.80;7.57;;;;;;;;;;5128790;27;20026;-78
2021/01/10 12:08:01;;;;;;;14.80;7.38;;;;;;;;;;5124846;27;20035;-72
2021/01/10 12:10:27;;;;;;;13.88;7.22;;;;;;;;;;5119344;27;20041;-74
2021/01/10 12:12:56;;;;;;;11.13;6.95;;;;;;;;;;5115300;27;20042;-73
2021/01/10 12:15:23;;;;;;;14.13;7.18;;;;;;;;;;5134440;27;20027;-77
2021/01/10 12:17:49;;;;;;;11.30;7.00;;;;;;;;;;5114017;27;20030;-76
2021/01/10 12:20:15;;;;;;;14.25;7.45;;;;;;;;;;5133538;27;20406;-75
2021/01/10 12:22:41;;;;;;;9.02;6.85;;;;;;;;;;5128505;27;20051;-73
2021/01/10 12:25:08;;;;;;;12.27;7.38;;;;;;;;;;5119909;27;20034;-75
2021/01/10 12:27:34;;;;;;;8.15;6.50;;;;;;;;;;5124016;27;20036;-80
2021/01/10 12:30:00;;;;;;;17.17;7.72;;;;;;;;;;5133748;27;20031;-79
2021/01/10 12:32:28;;;;;;;8.88;7.00;;;;;;;;;;5128079;27;20052;-79
2021/01/10 12:34:55;;;;;;;13.13;7.00;;;;;;;;;;5118376;27;20043;-77
2021/01/10 12:37:21;;;;;;;10.18;7.43;;;;;;;;;;5123888;27;20042;-74
2021/01/10 12:39:47;;;;;;;15.23;8.02;;;;;;;;;;5115617;27;20023;-76
2021/01/10 12:42:17;;;;;;;13.52;7.30;;;;;;;;;;5108515;28;20487;-75
2021/01/10 12:44:43;;;;;;;14.52;8.05;;;;;;;;;;5132442;27;20498;-77
2021/01/10 12:47:10;;;;;;;18.83;7.57;;;;;;;;;;5120896;27;20136;-75
2021/01/10 12:49:36;;;;;;;13.43;8.27;;;;;;;;;;5127594;27;20107;-76
2021/01/10 12:52:02;;;;;;;14.15;8.45;;;;;;;;;;5112398;27;20350;-73
2021/01/10 12:54:28;;;;;;;14.43;8.30;;;;;;;;;;5096165;28;20059;-75
2021/01/10 12:56:54;;;;;;;10.63;8.35;;;;;;;;;;5110916;28;20062;-74
2021/01/10 12:59:20;;;;;;;11.80;8.18;;;;;;;;;;5124328;27;20026;-73
2021/01/10 13:01:47;;;;;;;13.32;8.98;;;;;;;;;;5099529;28;20024;-77
2021/01/10 13:04:13;;;;;;;11.15;7.70;;;;;;;;;;5110933;28;20073;-77
2021/01/10 13:06:39;;;;;;;13.40;8.45;;;;;;;;;;5116582;27;20039;-77
2021/01/10 13:09:05;;;;;;;9.25;7.35;;;;;;;;;;5113090;27;20034;-74